Weather reports worldwide

Advertisment
K13 Alpha, Netherlands (6252): temperature & dewpoint: 14.10.2019 04:00:00 - 20.10.2019 04:00:00 (CEST)K13 Alpha, Netherlands (6252): water temperature: 14.10.2019 04:00:00 - 20.10.2019 04:00:00 (CEST)K13 Alpha, Netherlands (6252): wind speed & gusts: 14.10.2019 04:00:00 - 20.10.2019 04:00:00 (CEST)K13 Alpha, Netherlands (6252): wind direction: 14.10.2019 04:00:00 - 20.10.2019 04:00:00 (CEST)K13 Alpha, Netherlands (6252): reduced air pressure: 14.10.2019 04:00:00 - 20.10.2019 04:00:00 (CEST)
Date & Time tt [°C] td [°C] tw [°C] ff [km/h] ff [kn] fx [km/h] fx [kn] dd ppp [hPa]
20.10.2019 04:00:00 12,7 9,0 15,7 31 17 32 18 W -
20.10.2019 03:00:00 13,0 8,4 15,8 35 19 36 19 WSW -
20.10.2019 02:00:00 13,5 8,4 16,0 29 16 32 18 WSW -
20.10.2019 01:00:00 13,4 7,6 16,0 28 15 32 18 WSW -
20.10.2019 00:00:00 13,4 7,0 16,0 34 18 36 19 W -
19.10.2019 23:00:00 13,5 7,4 16,0 35 19 40 21 WSW -
19.10.2019 22:00:00 13,2 7,2 16,0 37 20 40 21 W -
19.10.2019 21:00:00 13,5 7,3 16,0 41 22 43 23 WSW -
19.10.2019 20:00:00 13,5 6,8 16,0 44 24 47 25 WSW -
19.10.2019 19:00:00 13,9 7,0 16,0 46 25 50 27 WSW -
19.10.2019 18:00:00 13,8 8,1 16,0 42 23 47 25 SW -
19.10.2019 17:00:00 13,7 8,6 16,0 42 23 47 25 SW -
19.10.2019 16:00:00 13,8 8,6 16,0 46 25 47 25 SW -
19.10.2019 15:00:00 13,9 8,7 16,0 42 23 43 23 SW -
19.10.2019 14:00:00 13,7 7,7 16,0 44 24 43 23 SW -
19.10.2019 13:00:00 13,8 8,5 16,0 39 21 43 23 WSW -
19.10.2019 12:00:00 14,0 8,4 16,0 44 24 47 25 SW -
19.10.2019 11:00:00 13,8 9,3 16,0 41 22 50 27 SSW -
19.10.2019 10:00:00 14,0 9,2 16,0 39 21 54 29 SW -
19.10.2019 09:00:00 14,1 9,1 16,0 39 21 54 29 SW -
19.10.2019 08:00:00 14,1 9,0 16,0 44 24 47 25 SW -
19.10.2019 07:00:00 13,3 8,1 16,0 46 25 58 31 SW -
19.10.2019 06:00:00 14,1 8,8 16,0 48 26 50 27 SW -
19.10.2019 05:00:00 14,3 9,3 16,0 54 29 61 33 SW -
19.10.2019 04:00:00 14,6 8,4 15,8 52 28 54 29 SW -
19.10.2019 03:00:00 14,6 9,0 16,0 55 30 58 31 SW -
19.10.2019 02:00:00 14,2 8,3 16,0 57 31 61 33 SW -
19.10.2019 01:00:00 14,5 8,8 16,0 59 32 65 35 SW -
19.10.2019 00:00:00 14,6 8,2 16,0 61 33 65 35 SW -
18.10.2019 23:00:00 14,6 8,6 16,0 65 35 68 37 SW -
18.10.2019 22:00:00 14,6 9,1 16,0 55 30 58 31 SW -
18.10.2019 21:00:00 13,3 8,5 16,0 48 26 72 39 SW -
18.10.2019 20:00:00 10,9 6,6 16,0 67 36 86 47 SW -
18.10.2019 19:00:00 14,4 8,6 16,0 55 30 65 35 SW -
18.10.2019 18:00:00 12,2 8,4 16,0 67 36 76 41 SW -
18.10.2019 17:00:00 14,1 7,4 16,0 55 30 58 31 SW -
18.10.2019 16:00:00 13,4 7,2 16,0 52 28 54 29 WSW -
18.10.2019 15:00:00 12,7 8,3 16,0 52 28 54 29 WSW 998,3
18.10.2019 14:00:00 12,4 9,1 16,0 44 24 50 27 W 997,0
18.10.2019 13:00:00 11,8 9,9 16,0 52 28 54 29 WSW -
18.10.2019 12:00:00 13,0 8,9 16,0 48 26 50 27 SW -
18.10.2019 11:00:00 12,1 9,9 16,0 35 19 36 19 SSW -
18.10.2019 10:00:00 11,8 9,9 16,0 37 20 50 27 WSW -
18.10.2019 09:00:00 14,3 10,4 16,0 26 14 58 31 SW -
18.10.2019 08:00:00 14,4 10,7 16,0 42 23 47 25 S -
18.10.2019 07:00:00 14,6 11,0 16,0 41 22 43 23 SSW -
18.10.2019 06:00:00 14,5 10,4 16,0 44 24 47 25 SSW -
18.10.2019 05:00:00 14,7 9,8 16,0 42 23 43 23 SSW -
18.10.2019 04:00:00 14,6 10,7 16,0 34 18 36 19 SSW -
18.10.2019 03:00:00 14,5 11,4 16,0 37 20 43 23 SSW -
18.10.2019 02:00:00 14,0 11,8 16,0 34 18 36 19 SSW -
18.10.2019 01:00:00 12,8 9,7 16,0 31 17 54 29 SSW -
18.10.2019 00:00:00 14,4 10,2 16,0 44 24 47 25 SSW -
17.10.2019 23:00:00 13,9 10,0 16,0 35 19 50 27 SSW 1005,5
17.10.2019 22:00:00 13,9 9,3 16,0 41 22 61 33 SSW -
17.10.2019 21:00:00 15,1 8,9 16,0 52 28 61 33 SSW -
17.10.2019 20:00:00 14,8 9,8 16,0 37 20 43 23 S -
17.10.2019 19:00:00 14,4 9,4 16,0 35 19 36 19 SSW -
17.10.2019 18:00:00 14,4 9,1 16,0 39 21 40 21 SSW -
17.10.2019 17:00:00 14,3 9,9 16,0 37 20 40 21 SSW -
17.10.2019 16:00:00 14,2 9,4 16,0 39 21 40 21 SSW -
17.10.2019 15:00:00 14,1 8,7 16,0 35 19 36 19 S -
17.10.2019 14:00:00 13,8 10,0 16,0 34 18 36 19 S -
17.10.2019 13:00:00 14,5 6,9 16,0 24 13 29 16 SSW -
17.10.2019 12:00:00 14,0 7,0 16,0 13 7 22 12 WSW -
17.10.2019 11:00:00 13,7 6,2 16,0 26 14 32 18 SW -
17.10.2019 10:00:00 13,5 5,9 16,0 28 15 36 19 WSW 1007,9
17.10.2019 09:00:00 13,4 4,5 16,0 29 16 32 18 WSW -
17.10.2019 08:00:00 13,4 3,3 16,0 26 14 29 16 WSW -
17.10.2019 07:00:00 13,3 6,5 16,0 24 13 29 16 WSW 1006,3
17.10.2019 06:00:00 13,1 6,9 16,0 22 12 25 14 W 1006,1
17.10.2019 05:00:00 13,1 6,4 16,0 22 12 29 16 W -
17.10.2019 04:00:00 13,3 5,7 16,0 29 16 32 18 WNW -
17.10.2019 03:00:00 13,3 6,4 16,0 26 14 29 16 WNW -
17.10.2019 02:00:00 13,5 6,7 16,0 28 15 29 16 WNW -
17.10.2019 01:00:00 13,6 8,3 16,0 28 15 29 16 WNW -
17.10.2019 00:00:00 13,8 8,2 16,0 26 14 29 16 W -
16.10.2019 23:00:00 14,0 8,8 16,0 26 14 29 16 W -
16.10.2019 22:00:00 13,9 9,3 16,0 31 17 32 18 W -
16.10.2019 21:00:00 14,3 9,9 16,0 34 18 36 19 W -
16.10.2019 20:00:00 14,5 10,5 16,0 34 18 40 21 W -
16.10.2019 19:00:00 14,7 12,3 16,0 44 24 47 25 W -
16.10.2019 18:00:00 15,9 14,2 16,0 50 27 50 27 SSW -
16.10.2019 17:00:00 15,7 15,1 16,0 44 24 47 25 SSW -
16.10.2019 16:00:00 14,9 14,4 16,0 48 26 50 27 S -
16.10.2019 15:00:00 14,3 13,1 16,0 46 25 50 27 S -
16.10.2019 14:00:00 14,5 12,4 16,0 50 27 50 27 S -
16.10.2019 13:00:00 14,3 11,9 16,0 46 25 47 25 S -
16.10.2019 12:00:00 14,3 11,6 16,0 46 25 47 25 S -
16.10.2019 11:00:00 14,5 11,5 16,0 42 23 47 25 S -
16.10.2019 10:00:00 14,9 11,4 16,0 41 22 43 23 S -
16.10.2019 09:00:00 14,8 10,4 16,0 31 17 36 19 SSW -
16.10.2019 08:00:00 14,4 9,9 16,0 34 18 32 18 SSW -
16.10.2019 07:00:00 14,4 10,3 16,0 34 18 32 18 SW -
16.10.2019 06:00:00 14,6 10,5 16,0 34 18 32 18 SSW -
16.10.2019 05:00:00 14,4 11,1 16,0 26 14 29 16 SW -
16.10.2019 04:00:00 14,6 11,7 16,0 29 16 32 18 SW -
16.10.2019 03:00:00 14,7 12,1 16,0 29 16 29 16 SW 1005,4
16.10.2019 02:00:00 13,9 11,6 16,0 11 6 18 10 S -
16.10.2019 01:00:00 13,8 10,7 16,0 11 6 14 8 S 1006,3
16.10.2019 00:00:00 13,5 10,2 16,0 13 7 18 10 WSW 1006,3
15.10.2019 23:00:00 13,3 9,9 16,0 16 9 22 12 W -
15.10.2019 22:00:00 13,1 9,8 16,0 21 11 22 12 WSW -
15.10.2019 21:00:00 13,2 9,8 16,0 29 16 29 16 W 1005,6
15.10.2019 20:00:00 13,4 10,5 16,0 21 11 22 12 WSW 1005,4
15.10.2019 19:00:00 13,2 10,7 16,0 21 11 22 12 WSW 1005,0
15.10.2019 18:00:00 13,1 10,3 16,0 18 10 25 14 WSW -
15.10.2019 17:00:00 13,0 10,1 16,0 28 15 29 16 WSW 1004,5
15.10.2019 16:00:00 13,0 10,0 16,0 28 15 32 18 WSW 1004,4
15.10.2019 15:00:00 12,8 10,0 16,0 26 14 32 18 WSW 1004,1
15.10.2019 14:00:00 13,0 10,3 16,0 31 17 36 19 WSW -
15.10.2019 13:00:00 13,1 10,3 16,0 35 19 43 23 WSW -
15.10.2019 12:00:00 13,0 10,3 16,0 41 22 43 23 WSW 1003,4
15.10.2019 11:00:00 13,2 10,7 16,0 46 25 47 25 SW 1003,3
15.10.2019 10:00:00 13,5 10,8 16,0 44 24 50 27 WSW 1002,8
15.10.2019 09:00:00 13,9 11,0 16,0 48 26 50 27 SW -
15.10.2019 08:00:00 14,7 11,4 16,0 48 26 50 27 SSW -
15.10.2019 07:00:00 15,2 12,0 16,0 50 27 54 29 SW 1001,6
15.10.2019 06:00:00 15,9 13,5 16,0 44 24 50 27 SSW 1001,4
15.10.2019 05:00:00 15,9 14,0 16,0 46 25 47 25 SSW 1001,2
15.10.2019 04:00:00 16,1 14,0 16,0 44 24 47 25 S -
15.10.2019 03:00:00 16,3 14,1 16,0 41 22 50 27 SSW -
15.10.2019 02:00:00 16,5 14,9 16,0 50 27 50 27 S 1002,1
15.10.2019 01:00:00 16,2 15,3 16,0 26 14 32 18 SSE 1001,7
15.10.2019 00:00:00 16,1 15,4 16,0 31 17 54 29 SE -
14.10.2019 23:00:00 15,9 14,7 16,0 37 20 40 21 SE -
14.10.2019 22:00:00 15,5 14,2 16,0 37 20 43 23 SE 1004,6
14.10.2019 21:00:00 14,7 13,4 16,0 46 25 50 27 ESE 1004,9
14.10.2019 20:00:00 14,4 12,3 16,0 50 27 50 27 ESE 1005,6
14.10.2019 19:00:00 14,3 10,3 16,0 54 29 54 29 E 1006,4
14.10.2019 18:00:00 13,6 10,7 16,0 50 27 54 29 E -
14.10.2019 17:00:00 13,5 9,5 16,0 42 23 43 23 E 1008,1
14.10.2019 16:00:00 13,6 9,6 16,0 37 20 43 23 E 1008,7
14.10.2019 15:00:00 13,7 9,3 16,0 34 18 36 19 E 1010,0
14.10.2019 14:00:00 13,3 9,0 16,0 22 12 25 14 E 1011,2
14.10.2019 13:00:00 13,1 8,9 16,0 15 8 18 10 E 1012,6
14.10.2019 12:00:00 13,4 9,0 16,0 13 7 18 10 ESE 1012,8
14.10.2019 11:00:00 13,6 8,7 16,0 8 4 7 4 E 1012,8
14.10.2019 10:00:00 13,6 8,4 16,0 2 1 7 4 - 1013,0
14.10.2019 09:00:00 13,5 8,7 16,0 5 3 18 10 W 1012,6
14.10.2019 08:00:00 13,4 8,4 16,0 11 6 18 10 W 1012,5
14.10.2019 07:00:00 13,4 8,6 16,0 22 12 25 14 WNW 1011,7
14.10.2019 06:00:00 13,3 8,4 16,0 26 14 32 18 W 1011,6
14.10.2019 05:00:00 13,2 8,4 16,0 31 17 36 19 W 1011,1
14.10.2019 04:00:00 13,2 8,9 16,0 37 20 40 21 W 1010,6

tt = temperature
td = dewpoint
tw = water temperature
ff = wind speed
fx = gusts
dd = wind direction
ppp = reduced air pressure

Next stations